sensor_id;sensor_type;location;lat;lon;timestamp;P1;durP1;ratioP1;P2;durP2;ratioP2
59828;SDS011;45708;51.848;107.620;2023-05-17T00:03:35;8.50;;;5.55;;
59828;SDS011;45708;51.848;107.620;2023-05-17T00:08:35;11.80;;;5.00;;
59828;SDS011;45708;51.848;107.620;2023-05-17T00:13:36;5.95;;;4.80;;
59828;SDS011;45708;51.848;107.620;2023-05-17T00:18:37;16.13;;;8.05;;
59828;SDS011;45708;51.848;107.620;2023-05-17T00:23:38;13.57;;;9.50;;
59828;SDS011;45708;51.848;107.620;2023-05-17T00:28:38;13.02;;;8.32;;
59828;SDS011;45708;51.848;107.620;2023-05-17T00:33:39;14.20;;;7.00;;
59828;SDS011;45708;51.848;107.620;2023-05-17T00:38:40;8.73;;;4.55;;
59828;SDS011;45708;51.848;107.620;2023-05-17T00:43:41;6.82;;;3.17;;
59828;SDS011;45708;51.848;107.620;2023-05-17T00:48:42;4.38;;;3.53;;
59828;SDS011;45708;51.848;107.620;2023-05-17T00:53:43;4.40;;;3.50;;
59828;SDS011;45708;51.848;107.620;2023-05-17T00:58:45;3.75;;;2.72;;
59828;SDS011;45708;51.848;107.620;2023-05-17T01:03:46;4.15;;;3.00;;
59828;SDS011;45708;51.848;107.620;2023-05-17T01:08:48;3.20;;;2.90;;
59828;SDS011;45708;51.848;107.620;2023-05-17T01:19:25;3.80;;;2.90;;
59828;SDS011;45708;51.848;107.620;2023-05-17T01:29:49;3.70;;;2.65;;
59828;SDS011;45708;51.848;107.620;2023-05-17T01:34:54;5.47;;;2.72;;
59828;SDS011;45708;51.848;107.620;2023-05-17T01:39:54;4.15;;;3.05;;
59828;SDS011;45708;51.848;107.620;2023-05-17T01:44:59;4.47;;;3.10;;
59828;SDS011;45708;51.848;107.620;2023-05-17T01:50:05;3.35;;;2.75;;
59828;SDS011;45708;51.848;107.620;2023-05-17T02:00:25;5.13;;;3.13;;
59828;SDS011;45708;51.848;107.620;2023-05-17T02:05:28;5.85;;;3.38;;
59828;SDS011;45708;51.848;107.620;2023-05-17T02:10:29;6.10;;;3.65;;
59828;SDS011;45708;51.848;107.620;2023-05-17T02:15:30;6.82;;;3.67;;
59828;SDS011;45708;51.848;107.620;2023-05-17T02:20:31;3.95;;;3.17;;
59828;SDS011;45708;51.848;107.620;2023-05-17T02:25:32;6.25;;;3.33;;
59828;SDS011;45708;51.848;107.620;2023-05-17T02:30:33;6.07;;;3.75;;
59828;SDS011;45708;51.848;107.620;2023-05-17T02:35:34;5.97;;;3.90;;
59828;SDS011;45708;51.848;107.620;2023-05-17T02:40:35;6.45;;;3.67;;
59828;SDS011;45708;51.848;107.620;2023-05-17T02:45:35;10.05;;;4.57;;
59828;SDS011;45708;51.848;107.620;2023-05-17T02:50:36;5.05;;;3.25;;
59828;SDS011;45708;51.848;107.620;2023-05-17T02:55:37;5.40;;;3.35;;
59828;SDS011;45708;51.848;107.620;2023-05-17T03:00:38;6.32;;;3.30;;
59828;SDS011;45708;51.848;107.620;2023-05-17T03:05:39;4.35;;;3.63;;
59828;SDS011;45708;51.848;107.620;2023-05-17T03:10:40;5.88;;;3.33;;
59828;SDS011;45708;51.848;107.620;2023-05-17T03:15:40;9.90;;;4.00;;
59828;SDS011;45708;51.848;107.620;2023-05-17T03:20:41;10.38;;;4.10;;
59828;SDS011;45708;51.848;107.620;2023-05-17T03:25:42;5.15;;;3.47;;
59828;SDS011;45708;51.848;107.620;2023-05-17T03:30:43;5.88;;;3.65;;
59828;SDS011;45708;51.848;107.620;2023-05-17T03:35:44;7.05;;;2.97;;
59828;SDS011;45708;51.848;107.620;2023-05-17T03:40:45;3.95;;;3.35;;
59828;SDS011;45708;51.848;107.620;2023-05-17T03:45:45;6.72;;;2.60;;
59828;SDS011;45708;51.848;107.620;2023-05-17T03:50:46;4.45;;;2.33;;
59828;SDS011;45708;51.848;107.620;2023-05-17T03:55:47;6.65;;;2.55;;
59828;SDS011;45708;51.848;107.620;2023-05-17T04:00:48;6.93;;;2.60;;
59828;SDS011;45708;51.848;107.620;2023-05-17T04:05:48;4.07;;;2.70;;
59828;SDS011;45708;51.848;107.620;2023-05-17T04:10:49;4.95;;;2.20;;
59828;SDS011;45708;51.848;107.620;2023-05-17T04:15:50;2.00;;;1.80;;
59828;SDS011;45708;51.848;107.620;2023-05-17T04:20:51;2.22;;;2.00;;
59828;SDS011;45708;51.848;107.620;2023-05-17T04:25:54;3.03;;;2.00;;
59828;SDS011;45708;51.848;107.620;2023-05-17T04:30:55;4.28;;;3.08;;
59828;SDS011;45708;51.848;107.620;2023-05-17T04:35:58;6.95;;;2.92;;
59828;SDS011;45708;51.848;107.620;2023-05-17T04:41:02;4.22;;;2.80;;
59828;SDS011;45708;51.848;107.620;2023-05-17T04:46:04;7.25;;;2.40;;
59828;SDS011;45708;51.848;107.620;2023-05-17T04:51:04;10.15;;;7.25;;
59828;SDS011;45708;51.848;107.620;2023-05-17T04:56:05;3.30;;;2.47;;
59828;SDS011;45708;51.848;107.620;2023-05-17T05:01:06;4.38;;;4.07;;
59828;SDS011;45708;51.848;107.620;2023-05-17T05:06:07;3.50;;;2.20;;
59828;SDS011;45708;51.848;107.620;2023-05-17T05:11:08;4.88;;;2.55;;
59828;SDS011;45708;51.848;107.620;2023-05-17T05:16:09;7.57;;;3.60;;
59828;SDS011;45708;51.848;107.620;2023-05-17T05:21:10;4.38;;;2.13;;
59828;SDS011;45708;51.848;107.620;2023-05-17T05:26:10;3.90;;;2.00;;
59828;SDS011;45708;51.848;107.620;2023-05-17T05:31:11;2.40;;;2.20;;
59828;SDS011;45708;51.848;107.620;2023-05-17T05:36:12;9.30;;;3.92;;
59828;SDS011;45708;51.848;107.620;2023-05-17T05:41:13;3.47;;;1.65;;
59828;SDS011;45708;51.848;107.620;2023-05-17T05:46:13;3.03;;;2.28;;
59828;SDS011;45708;51.848;107.620;2023-05-17T05:51:14;10.13;;;3.83;;
59828;SDS011;45708;51.848;107.620;2023-05-17T05:56:15;18.20;;;4.78;;
59828;SDS011;45708;51.848;107.620;2023-05-17T06:01:16;13.43;;;3.15;;
59828;SDS011;45708;51.848;107.620;2023-05-17T06:06:16;3.63;;;1.92;;
59828;SDS011;45708;51.848;107.620;2023-05-17T06:11:17;10.52;;;3.17;;
59828;SDS011;45708;51.848;107.620;2023-05-17T06:16:18;9.23;;;3.25;;
59828;SDS011;45708;51.848;107.620;2023-05-17T06:21:19;3.95;;;2.58;;
59828;SDS011;45708;51.848;107.620;2023-05-17T06:26:20;3.08;;;2.17;;
59828;SDS011;45708;51.848;107.620;2023-05-17T06:31:21;4.80;;;2.38;;
59828;SDS011;45708;51.848;107.620;2023-05-17T06:36:21;2.78;;;2.58;;
59828;SDS011;45708;51.848;107.620;2023-05-17T06:41:22;12.00;;;5.57;;
59828;SDS011;45708;51.848;107.620;2023-05-17T06:46:23;4.03;;;2.58;;
59828;SDS011;45708;51.848;107.620;2023-05-17T06:51:24;4.18;;;3.40;;
59828;SDS011;45708;51.848;107.620;2023-05-17T06:56:24;4.13;;;2.38;;
59828;SDS011;45708;51.848;107.620;2023-05-17T07:01:26;3.42;;;2.45;;
59828;SDS011;45708;51.848;107.620;2023-05-17T07:06:26;7.22;;;3.00;;
59828;SDS011;45708;51.848;107.620;2023-05-17T07:11:27;3.83;;;2.70;;
59828;SDS011;45708;51.848;107.620;2023-05-17T07:16:28;2.65;;;2.38;;
59828;SDS011;45708;51.848;107.620;2023-05-17T07:21:29;5.63;;;2.78;;
59828;SDS011;45708;51.848;107.620;2023-05-17T07:26:30;3.95;;;2.10;;
59828;SDS011;45708;51.848;107.620;2023-05-17T07:31:31;3.65;;;1.95;;
59828;SDS011;45708;51.848;107.620;2023-05-17T07:36:32;3.00;;;2.53;;
59828;SDS011;45708;51.848;107.620;2023-05-17T07:41:33;8.10;;;2.88;;
59828;SDS011;45708;51.848;107.620;2023-05-17T07:46:34;3.90;;;2.78;;
59828;SDS011;45708;51.848;107.620;2023-05-17T07:51:35;2.30;;;1.83;;
59828;SDS011;45708;51.848;107.620;2023-05-17T07:56:36;12.32;;;3.33;;
59828;SDS011;45708;51.848;107.620;2023-05-17T08:01:37;4.28;;;2.10;;
59828;SDS011;45708;51.848;107.620;2023-05-17T08:06:38;3.33;;;2.20;;
59828;SDS011;45708;51.848;107.620;2023-05-17T08:11:39;4.20;;;2.45;;
59828;SDS011;45708;51.848;107.620;2023-05-17T08:16:41;36.95;;;5.90;;
59828;SDS011;45708;51.848;107.620;2023-05-17T08:21:42;32.15;;;5.15;;
59828;SDS011;45708;51.848;107.620;2023-05-17T08:26:43;28.73;;;6.20;;
59828;SDS011;45708;51.848;107.620;2023-05-17T08:31:44;2.33;;;1.95;;
59828;SDS011;45708;51.848;107.620;2023-05-17T08:36:45;5.65;;;2.95;;
59828;SDS011;45708;51.848;107.620;2023-05-17T08:41:46;23.67;;;4.70;;
59828;SDS011;45708;51.848;107.620;2023-05-17T08:46:47;20.30;;;6.95;;
59828;SDS011;45708;51.848;107.620;2023-05-17T08:51:49;5.38;;;2.30;;
59828;SDS011;45708;51.848;107.620;2023-05-17T08:56:53;4.28;;;2.53;;
59828;SDS011;45708;51.848;107.620;2023-05-17T09:01:58;8.95;;;3.75;;
59828;SDS011;45708;51.848;107.620;2023-05-17T09:07:00;23.45;;;9.00;;
59828;SDS011;45708;51.848;107.620;2023-05-17T09:12:01;18.73;;;3.90;;
59828;SDS011;45708;51.848;107.620;2023-05-17T09:17:02;6.28;;;2.65;;
59828;SDS011;45708;51.848;107.620;2023-05-17T09:22:02;11.20;;;5.57;;
59828;SDS011;45708;51.848;107.620;2023-05-17T09:27:04;4.25;;;2.35;;
59828;SDS011;45708;51.848;107.620;2023-05-17T09:32:17;5.80;;;2.67;;
59828;SDS011;45708;51.848;107.620;2023-05-17T09:37:18;12.15;;;4.55;;
59828;SDS011;45708;51.848;107.620;2023-05-17T09:42:19;14.90;;;3.85;;
59828;SDS011;45708;51.848;107.620;2023-05-17T09:47:26;7.97;;;2.38;;
59828;SDS011;45708;51.848;107.620;2023-05-17T09:52:28;4.03;;;2.30;;
59828;SDS011;45708;51.848;107.620;2023-05-17T09:57:35;7.90;;;2.70;;
59828;SDS011;45708;51.848;107.620;2023-05-17T10:02:37;11.40;;;2.70;;
59828;SDS011;45708;51.848;107.620;2023-05-17T10:07:39;45.25;;;12.57;;
59828;SDS011;45708;51.848;107.620;2023-05-17T10:12:42;3.47;;;2.55;;
59828;SDS011;45708;51.848;107.620;2023-05-17T10:17:43;11.05;;;2.88;;
59828;SDS011;45708;51.848;107.620;2023-05-17T10:22:45;16.92;;;4.25;;
59828;SDS011;45708;51.848;107.620;2023-05-17T10:27:48;11.57;;;2.75;;
59828;SDS011;45708;51.848;107.620;2023-05-17T10:32:50;4.10;;;2.70;;
59828;SDS011;45708;51.848;107.620;2023-05-17T10:37:52;29.08;;;5.50;;
59828;SDS011;45708;51.848;107.620;2023-05-17T10:42:53;6.72;;;2.90;;
59828;SDS011;45708;51.848;107.620;2023-05-17T10:47:55;7.63;;;3.38;;
59828;SDS011;45708;51.848;107.620;2023-05-17T10:52:59;14.35;;;4.03;;
59828;SDS011;45708;51.848;107.620;2023-05-17T11:03:11;3.95;;;2.50;;
59828;SDS011;45708;51.848;107.620;2023-05-17T11:08:17;8.10;;;3.17;;
59828;SDS011;45708;51.848;107.620;2023-05-17T11:13:21;6.40;;;2.83;;
59828;SDS011;45708;51.848;107.620;2023-05-17T11:18:24;11.00;;;3.10;;
59828;SDS011;45708;51.848;107.620;2023-05-17T11:23:26;8.32;;;2.78;;
59828;SDS011;45708;51.848;107.620;2023-05-17T11:28:27;5.32;;;2.80;;
59828;SDS011;45708;51.848;107.620;2023-05-17T11:33:38;7.53;;;4.70;;
59828;SDS011;45708;51.848;107.620;2023-05-17T11:38:42;7.78;;;3.78;;
59828;SDS011;45708;51.848;107.620;2023-05-17T11:43:47;15.13;;;5.15;;
59828;SDS011;45708;51.848;107.620;2023-05-17T11:48:51;10.27;;;5.70;;
59828;SDS011;45708;51.848;107.620;2023-05-17T11:53:53;9.98;;;3.75;;
59828;SDS011;45708;51.848;107.620;2023-05-17T11:58:54;6.88;;;3.97;;
59828;SDS011;45708;51.848;107.620;2023-05-17T12:03:55;8.60;;;4.10;;
59828;SDS011;45708;51.848;107.620;2023-05-17T12:08:57;5.50;;;3.72;;
59828;SDS011;45708;51.848;107.620;2023-05-17T12:13:57;8.52;;;3.80;;
59828;SDS011;45708;51.848;107.620;2023-05-17T12:18:59;13.65;;;5.03;;
59828;SDS011;45708;51.848;107.620;2023-05-17T12:24:00;9.07;;;4.20;;
59828;SDS011;45708;51.848;107.620;2023-05-17T12:29:01;9.68;;;3.50;;
59828;SDS011;45708;51.848;107.620;2023-05-17T12:34:03;10.55;;;5.30;;
59828;SDS011;45708;51.848;107.620;2023-05-17T12:39:04;30.77;;;15.23;;
59828;SDS011;45708;51.848;107.620;2023-05-17T12:44:06;29.85;;;15.38;;
59828;SDS011;45708;51.848;107.620;2023-05-17T12:49:08;30.67;;;14.32;;
59828;SDS011;45708;51.848;107.620;2023-05-17T12:54:09;34.65;;;18.17;;
59828;SDS011;45708;51.848;107.620;2023-05-17T12:59:15;12.32;;;6.47;;
59828;SDS011;45708;51.848;107.620;2023-05-17T13:04:18;8.60;;;4.75;;
59828;SDS011;45708;51.848;107.620;2023-05-17T13:09:21;6.18;;;3.60;;
59828;SDS011;45708;51.848;107.620;2023-05-17T13:14:36;5.97;;;3.63;;
59828;SDS011;45708;51.848;107.620;2023-05-17T13:19:44;7.28;;;3.30;;
59828;SDS011;45708;51.848;107.620;2023-05-17T13:24:45;8.32;;;4.28;;
59828;SDS011;45708;51.848;107.620;2023-05-17T13:29:46;8.60;;;4.50;;
59828;SDS011;45708;51.848;107.620;2023-05-17T13:34:47;8.00;;;5.53;;
59828;SDS011;45708;51.848;107.620;2023-05-17T13:39:48;6.40;;;3.63;;
59828;SDS011;45708;51.848;107.620;2023-05-17T13:44:48;6.88;;;4.45;;
59828;SDS011;45708;51.848;107.620;2023-05-17T13:49:49;11.38;;;6.70;;
59828;SDS011;45708;51.848;107.620;2023-05-17T13:54:50;9.68;;;6.15;;
59828;SDS011;45708;51.848;107.620;2023-05-17T13:59:51;7.60;;;4.30;;
59828;SDS011;45708;51.848;107.620;2023-05-17T14:04:51;8.50;;;5.13;;
59828;SDS011;45708;51.848;107.620;2023-05-17T14:09:52;11.48;;;6.47;;
59828;SDS011;45708;51.848;107.620;2023-05-17T14:14:53;7.43;;;4.60;;
59828;SDS011;45708;51.848;107.620;2023-05-17T14:19:54;6.25;;;3.63;;
59828;SDS011;45708;51.848;107.620;2023-05-17T14:24:55;5.90;;;3.50;;
59828;SDS011;45708;51.848;107.620;2023-05-17T14:29:55;6.10;;;3.75;;
59828;SDS011;45708;51.848;107.620;2023-05-17T14:34:56;8.13;;;4.32;;
59828;SDS011;45708;51.848;107.620;2023-05-17T14:39:57;8.88;;;4.72;;
59828;SDS011;45708;51.848;107.620;2023-05-17T14:44:58;7.00;;;4.80;;
59828;SDS011;45708;51.848;107.620;2023-05-17T14:49:59;13.30;;;6.65;;
59828;SDS011;45708;51.848;107.620;2023-05-17T14:55:00;11.88;;;6.65;;
59828;SDS011;45708;51.848;107.620;2023-05-17T15:00:00;16.08;;;10.40;;
59828;SDS011;45708;51.848;107.620;2023-05-17T15:05:01;25.52;;;12.90;;
59828;SDS011;45708;51.848;107.620;2023-05-17T15:10:02;18.15;;;10.13;;
59828;SDS011;45708;51.848;107.620;2023-05-17T15:15:04;19.40;;;8.90;;
59828;SDS011;45708;51.848;107.620;2023-05-17T15:20:07;15.50;;;8.20;;
59828;SDS011;45708;51.848;107.620;2023-05-17T15:25:08;11.80;;;5.95;;
59828;SDS011;45708;51.848;107.620;2023-05-17T15:30:09;16.95;;;9.15;;
59828;SDS011;45708;51.848;107.620;2023-05-17T15:35:10;21.17;;;11.80;;
59828;SDS011;45708;51.848;107.620;2023-05-17T15:40:11;15.77;;;9.05;;
59828;SDS011;45708;51.848;107.620;2023-05-17T15:45:12;13.52;;;7.97;;
59828;SDS011;45708;51.848;107.620;2023-05-17T15:50:13;18.17;;;9.20;;
59828;SDS011;45708;51.848;107.620;2023-05-17T15:55:14;10.27;;;6.57;;
59828;SDS011;45708;51.848;107.620;2023-05-17T16:00:15;12.85;;;6.93;;
59828;SDS011;45708;51.848;107.620;2023-05-17T16:05:16;11.65;;;6.90;;
59828;SDS011;45708;51.848;107.620;2023-05-17T16:10:16;8.98;;;4.65;;
59828;SDS011;45708;51.848;107.620;2023-05-17T16:15:17;6.18;;;3.22;;
59828;SDS011;45708;51.848;107.620;2023-05-17T16:20:18;3.90;;;2.60;;
59828;SDS011;45708;51.848;107.620;2023-05-17T16:25:20;4.50;;;3.20;;
59828;SDS011;45708;51.848;107.620;2023-05-17T16:30:22;6.53;;;3.38;;
59828;SDS011;45708;51.848;107.620;2023-05-17T16:35:23;8.88;;;5.25;;
59828;SDS011;45708;51.848;107.620;2023-05-17T16:40:23;10.75;;;7.55;;
59828;SDS011;45708;51.848;107.620;2023-05-17T16:45:25;11.95;;;7.13;;
59828;SDS011;45708;51.848;107.620;2023-05-17T16:50:26;15.38;;;9.13;;
59828;SDS011;45708;51.848;107.620;2023-05-17T16:55:27;17.95;;;10.05;;
59828;SDS011;45708;51.848;107.620;2023-05-17T17:00:29;21.60;;;9.88;;
59828;SDS011;45708;51.848;107.620;2023-05-17T17:05:30;20.73;;;8.20;;
59828;SDS011;45708;51.848;107.620;2023-05-17T17:10:31;13.35;;;8.00;;
59828;SDS011;45708;51.848;107.620;2023-05-17T17:15:32;12.15;;;5.72;;
59828;SDS011;45708;51.848;107.620;2023-05-17T17:20:33;7.75;;;4.28;;
59828;SDS011;45708;51.848;107.620;2023-05-17T17:25:34;8.32;;;5.35;;
59828;SDS011;45708;51.848;107.620;2023-05-17T17:30:34;9.65;;;6.32;;
59828;SDS011;45708;51.848;107.620;2023-05-17T17:35:35;9.45;;;5.80;;
59828;SDS011;45708;51.848;107.620;2023-05-17T17:40:36;6.13;;;3.80;;
59828;SDS011;45708;51.848;107.620;2023-05-17T17:45:37;4.60;;;2.83;;
59828;SDS011;45708;51.848;107.620;2023-05-17T17:50:38;4.40;;;3.08;;
59828;SDS011;45708;51.848;107.620;2023-05-17T17:55:39;4.22;;;2.20;;
59828;SDS011;45708;51.848;107.620;2023-05-17T18:00:39;4.43;;;2.30;;
59828;SDS011;45708;51.848;107.620;2023-05-17T18:05:40;6.70;;;3.40;;
59828;SDS011;45708;51.848;107.620;2023-05-17T18:10:41;5.72;;;4.20;;
59828;SDS011;45708;51.848;107.620;2023-05-17T18:15:42;8.57;;;5.05;;
59828;SDS011;45708;51.848;107.620;2023-05-17T18:20:43;10.38;;;5.95;;
59828;SDS011;45708;51.848;107.620;2023-05-17T18:25:43;10.15;;;6.18;;
59828;SDS011;45708;51.848;107.620;2023-05-17T18:30:44;11.40;;;5.93;;
59828;SDS011;45708;51.848;107.620;2023-05-17T18:35:45;8.65;;;5.25;;
59828;SDS011;45708;51.848;107.620;2023-05-17T18:40:46;10.15;;;4.82;;
59828;SDS011;45708;51.848;107.620;2023-05-17T18:45:47;8.02;;;4.95;;
59828;SDS011;45708;51.848;107.620;2023-05-17T18:50:47;6.50;;;3.78;;
59828;SDS011;45708;51.848;107.620;2023-05-17T18:55:48;6.38;;;4.00;;
59828;SDS011;45708;51.848;107.620;2023-05-17T19:00:49;7.90;;;4.53;;
59828;SDS011;45708;51.848;107.620;2023-05-17T19:05:50;5.78;;;3.90;;
59828;SDS011;45708;51.848;107.620;2023-05-17T19:10:51;6.97;;;4.85;;
59828;SDS011;45708;51.848;107.620;2023-05-17T19:15:51;8.20;;;4.55;;
59828;SDS011;45708;51.848;107.620;2023-05-17T19:20:52;7.88;;;4.65;;
59828;SDS011;45708;51.848;107.620;2023-05-17T19:25:53;10.75;;;5.25;;
59828;SDS011;45708;51.848;107.620;2023-05-17T19:30:54;8.60;;;4.97;;
59828;SDS011;45708;51.848;107.620;2023-05-17T19:35:54;10.65;;;4.63;;
59828;SDS011;45708;51.848;107.620;2023-05-17T19:40:55;10.38;;;4.95;;
59828;SDS011;45708;51.848;107.620;2023-05-17T19:45:56;8.05;;;4.70;;
59828;SDS011;45708;51.848;107.620;2023-05-17T19:50:57;11.77;;;5.18;;
59828;SDS011;45708;51.848;107.620;2023-05-17T19:55:59;8.30;;;5.07;;
59828;SDS011;45708;51.848;107.620;2023-05-17T20:01:00;6.55;;;4.75;;
59828;SDS011;45708;51.848;107.620;2023-05-17T20:06:01;8.45;;;4.90;;
59828;SDS011;45708;51.848;107.620;2023-05-17T20:11:02;9.23;;;5.18;;
59828;SDS011;45708;51.848;107.620;2023-05-17T20:16:03;8.38;;;5.07;;
59828;SDS011;45708;51.848;107.620;2023-05-17T20:21:04;12.20;;;5.22;;
59828;SDS011;45708;51.848;107.620;2023-05-17T20:26:05;9.85;;;4.82;;
59828;SDS011;45708;51.848;107.620;2023-05-17T20:31:06;9.82;;;5.70;;
59828;SDS011;45708;51.848;107.620;2023-05-17T20:36:07;7.32;;;4.85;;
59828;SDS011;45708;51.848;107.620;2023-05-17T20:41:08;6.70;;;5.07;;
59828;SDS011;45708;51.848;107.620;2023-05-17T20:46:09;8.48;;;5.60;;
59828;SDS011;45708;51.848;107.620;2023-05-17T20:51:10;10.73;;;5.40;;
59828;SDS011;45708;51.848;107.620;2023-05-17T20:56:11;7.82;;;5.00;;
59828;SDS011;45708;51.848;107.620;2023-05-17T21:01:12;11.63;;;5.30;;
59828;SDS011;45708;51.848;107.620;2023-05-17T21:06:13;10.80;;;6.10;;
59828;SDS011;45708;51.848;107.620;2023-05-17T21:11:14;10.27;;;6.15;;
59828;SDS011;45708;51.848;107.620;2023-05-17T21:16:15;7.78;;;4.97;;
59828;SDS011;45708;51.848;107.620;2023-05-17T21:21:16;12.57;;;6.65;;
59828;SDS011;45708;51.848;107.620;2023-05-17T21:26:17;13.27;;;7.03;;
59828;SDS011;45708;51.848;107.620;2023-05-17T21:31:18;14.85;;;6.57;;
59828;SDS011;45708;51.848;107.620;2023-05-17T21:36:19;9.13;;;6.05;;
59828;SDS011;45708;51.848;107.620;2023-05-17T21:41:20;9.57;;;6.30;;
59828;SDS011;45708;51.848;107.620;2023-05-17T21:46:20;13.68;;;6.85;;
59828;SDS011;45708;51.848;107.620;2023-05-17T21:51:21;16.58;;;9.02;;
59828;SDS011;45708;51.848;107.620;2023-05-17T21:56:22;17.63;;;8.63;;
59828;SDS011;45708;51.848;107.620;2023-05-17T22:01:23;12.57;;;7.72;;
59828;SDS011;45708;51.848;107.620;2023-05-17T22:06:24;13.18;;;6.75;;
59828;SDS011;45708;51.848;107.620;2023-05-17T22:11:25;11.40;;;6.47;;
59828;SDS011;45708;51.848;107.620;2023-05-17T22:16:26;13.65;;;8.02;;
59828;SDS011;45708;51.848;107.620;2023-05-17T22:21:28;10.85;;;6.57;;
59828;SDS011;45708;51.848;107.620;2023-05-17T22:26:29;13.02;;;5.95;;
59828;SDS011;45708;51.848;107.620;2023-05-17T22:31:29;23.98;;;9.63;;
59828;SDS011;45708;51.848;107.620;2023-05-17T22:36:30;9.93;;;5.68;;
59828;SDS011;45708;51.848;107.620;2023-05-17T22:41:31;15.35;;;6.07;;
59828;SDS011;45708;51.848;107.620;2023-05-17T22:46:32;16.38;;;6.10;;
59828;SDS011;45708;51.848;107.620;2023-05-17T22:51:33;7.60;;;3.95;;
59828;SDS011;45708;51.848;107.620;2023-05-17T22:56:34;9.82;;;3.80;;
59828;SDS011;45708;51.848;107.620;2023-05-17T23:01:34;4.75;;;3.25;;
59828;SDS011;45708;51.848;107.620;2023-05-17T23:06:35;4.07;;;2.83;;
59828;SDS011;45708;51.848;107.620;2023-05-17T23:11:36;8.35;;;3.60;;
59828;SDS011;45708;51.848;107.620;2023-05-17T23:16:38;4.88;;;3.58;;
59828;SDS011;45708;51.848;107.620;2023-05-17T23:21:39;5.35;;;3.22;;
59828;SDS011;45708;51.848;107.620;2023-05-17T23:26:40;7.65;;;3.40;;
59828;SDS011;45708;51.848;107.620;2023-05-17T23:31:41;6.50;;;3.70;;
59828;SDS011;45708;51.848;107.620;2023-05-17T23:36:41;5.07;;;2.83;;
59828;SDS011;45708;51.848;107.620;2023-05-17T23:41:43;9.35;;;3.78;;
59828;SDS011;45708;51.848;107.620;2023-05-17T23:46:43;12.50;;;4.20;;
59828;SDS011;45708;51.848;107.620;2023-05-17T23:51:44;8.35;;;3.13;;
59828;SDS011;45708;51.848;107.620;2023-05-17T23:56:45;6.90;;;3.25;;
